LFGJ/DLE METAR and TAF weather

Enter ICAO airport designator
Station Type Date Time Source
LFGJ METAR 2020/01/24 09:30 UTC NOAA

LFGJ 240930Z AUTO VRB02KT 1900 1200 R05/1600D BR OVC002 M02/M03 Q1025 TEMPO 3000 BR BECMG VV///


Station Type Date Time Source
LFGJ Decoded METAR 2020/01/24 09:30 UTC NOAA

Dole Tavaux, France (LFGJ) 47-02-34N 005-26-06E
Jan 24, 2020 - 04:30 AM EST / 2020.01.24 0930 UTC
Wind: Variable at 2 MPH (2 KT):0
Visibility: 1 mile(s):0
Sky conditions: overcast
Weather: mist
Temperature: 28 F (-2 C)
Dew Point: 26 F (-3 C)
Relative Humidity: 92%
Pressure (altimeter): 30.27 in. Hg (1025 hPa)
ob: LFGJ 240930Z AUTO VRB02KT 1900 1200 R05/1600D BR OVC002 M02/M03 Q1025 TEMPO 3000 BR BECMG VV///
cycle: 9

Station Type Date Time Source
LFGJ TAF 2012/05/01 21:57 UTC NOAA

TAF
AMD TAF
AMD LFGJ 010355Z 3021/0106 18008KT 9999 FEW023 SCT035 BKN050
TEMPO 0102/0103 4000 -SHRA BR FEW012TCU BKN015
BECMG 0103/0104 VRB03KT 0200 FG VV///

Example: see airport list